createdAt,value
2018-01-27T00:00:04.454Z,95.21
2018-01-27T00:01:04.662Z,95.19
2018-01-27T00:02:05.371Z,95.23
2018-01-27T00:03:04.088Z,95.3
2018-01-27T00:04:03.262Z,94.93
2018-01-27T00:05:03.326Z,94.93
2018-01-27T00:06:03.832Z,94.91
2018-01-27T00:07:04.124Z,95.01
2018-01-27T00:08:06.145Z,94.95
2018-01-27T00:09:03.632Z,95.06
2018-01-27T00:10:03.242Z,94.91
2018-01-27T00:11:04.335Z,94.91
2018-01-27T00:12:04.237Z,95.11
2018-01-27T00:13:04.627Z,95.14
2018-01-27T00:14:04.626Z,95.19
2018-01-27T00:15:03.320Z,95.19
2018-01-27T00:16:03.395Z,95.01
2018-01-27T00:17:03.387Z,94.78
2018-01-27T00:18:04.426Z,94.71
2018-01-27T00:19:03.462Z,94.68
2018-01-27T00:20:04.911Z,94.45
2018-01-27T00:21:03.978Z,94.66
2018-01-27T00:22:03.550Z,94.86
2018-01-27T00:23:04.352Z,94.83
2018-01-27T00:24:03.845Z,94.84
2018-01-27T00:25:03.759Z,94.87
2018-01-27T00:26:03.570Z,94.77
2018-01-27T00:27:03.343Z,94.69
2018-01-27T00:28:03.721Z,94.62
2018-01-27T00:29:04.050Z,94.56
2018-01-27T00:30:05.025Z,94.55
2018-01-27T00:31:04.430Z,94.52
2018-01-27T00:32:04.240Z,94.52
2018-01-27T00:33:04.048Z,94.53
2018-01-27T00:34:04.427Z,94.48
2018-01-27T00:35:05.009Z,94.38
2018-01-27T00:36:04.118Z,94.31
2018-01-27T00:37:03.311Z,94.42
2018-01-27T00:38:04.006Z,94.45
2018-01-27T00:39:03.998Z,94.53
2018-01-27T00:40:04.126Z,94.55
2018-01-27T00:41:03.399Z,94.55
2018-01-27T00:42:03.381Z,94.56
2018-01-27T00:43:04.580Z,94.53
2018-01-27T00:44:05.015Z,94.53
2018-01-27T00:45:03.625Z,94.44
2018-01-27T00:46:04.755Z,94.42
2018-01-27T00:47:07.298Z,94.26
2018-01-27T00:48:04.828Z,94.31
2018-01-27T00:49:04.839Z,94.19
2018-01-27T00:50:06.488Z,94.25
2018-01-27T00:51:04.791Z,94.31
2018-01-27T00:52:03.849Z,94.32
2018-01-27T00:53:03.501Z,94.34
2018-01-27T00:54:03.476Z,94.42
2018-01-27T00:55:03.332Z,94.54
2018-01-27T00:56:03.473Z,94.51
2018-01-27T00:57:03.950Z,94.4
2018-01-27T00:58:03.640Z,94.36
2018-01-27T00:59:03.371Z,94.47
2018-01-27T01:00:03.533Z,94.72
2018-01-27T01:01:04.066Z,94.36
2018-01-27T01:02:05.338Z,94.35
2018-01-27T01:03:03.368Z,94.3
2018-01-27T01:04:03.684Z,94.25
2018-01-27T01:05:03.441Z,94.28
2018-01-27T01:06:04.516Z,94.31
2018-01-27T01:07:05.488Z,94.22
2018-01-27T01:08:04.538Z,94.36
2018-01-27T01:09:04.364Z,94.38
2018-01-27T01:10:04.031Z,94.37
2018-01-27T01:11:03.287Z,94.45
2018-01-27T01:12:05.224Z,94.43
2018-01-27T01:13:04.968Z,94.41
2018-01-27T01:14:04.178Z,94.4
2018-01-27T01:15:04.188Z,94.52
2018-01-27T01:16:04.031Z,94.47
2018-01-27T01:17:03.546Z,94.29
2018-01-27T01:18:03.132Z,94.35
2018-01-27T01:19:03.991Z,94.32
2018-01-27T01:20:04.128Z,94.26
2018-01-27T01:21:03.289Z,94.53
2018-01-27T01:22:03.584Z,94.59
2018-01-27T01:23:03.374Z,94.42
2018-01-27T01:24:03.359Z,94.39
2018-01-27T01:25:03.663Z,94.36
2018-01-27T01:26:03.519Z,94.37
2018-01-27T01:27:03.387Z,94.48
2018-01-27T01:28:04.596Z,94.48
2018-01-27T01:29:04.274Z,94.44
2018-01-27T01:30:03.541Z,94.7
2018-01-27T01:31:03.389Z,94.55
2018-01-27T01:32:04.690Z,94.68
2018-01-27T01:33:04.065Z,94.7
2018-01-27T01:34:04.012Z,94.69
2018-01-27T01:35:03.440Z,94.61
2018-01-27T01:36:05.067Z,94.66
2018-01-27T01:37:04.299Z,94.69
2018-01-27T01:38:04.639Z,94.52
2018-01-27T01:39:03.339Z,94.54
2018-01-27T01:40:03.399Z,94.43
2018-01-27T01:41:03.517Z,94.54
2018-01-27T01:42:03.482Z,94.49
2018-01-27T01:43:04.238Z,94.53
2018-01-27T01:44:05.138Z,94.54
2018-01-27T01:45:04.396Z,94.68
2018-01-27T01:46:03.473Z,94.89
2018-01-27T01:47:05.107Z,94.85
2018-01-27T01:48:03.444Z,94.6
2018-01-27T01:49:03.503Z,94.35
2018-01-27T01:50:03.677Z,94.4
2018-01-27T01:51:04.052Z,94.53
2018-01-27T01:52:04.412Z,94.62
2018-01-27T01:53:03.413Z,94.66
2018-01-27T01:54:05.921Z,94.54
2018-01-27T01:55:03.583Z,94.46
2018-01-27T01:56:03.455Z,94.41
2018-01-27T01:57:03.484Z,94.45
2018-01-27T01:58:03.372Z,94.56
2018-01-27T01:59:03.637Z,94.51
2018-01-27T02:00:04.143Z,94.4
2018-01-27T02:01:03.886Z,94.41
2018-01-27T02:02:04.146Z,94.53
2018-01-27T02:03:03.462Z,94.53
2018-01-27T02:04:04.902Z,94.52
2018-01-27T02:05:03.534Z,94.53
2018-01-27T02:06:03.563Z,95.07
2018-01-27T02:07:03.756Z,95
2018-01-27T02:08:04.716Z,95.17
2018-01-27T02:09:04.315Z,95.07
2018-01-27T02:10:03.925Z,95
2018-01-27T02:11:03.358Z,94.85
2018-01-27T02:12:04.196Z,94.82
2018-01-27T02:13:03.422Z,94.79
2018-01-27T02:14:04.464Z,94.73
2018-01-27T02:15:03.513Z,94.65
2018-01-27T02:16:04.149Z,94.76
2018-01-27T02:17:04.242Z,94.76
2018-01-27T02:18:03.602Z,94.77
2018-01-27T02:19:04.099Z,94.71
2018-01-27T02:20:04.406Z,94.62
2018-01-27T02:21:04.957Z,94.63
2018-01-27T02:22:04.144Z,94.67
2018-01-27T02:23:04.662Z,94.8
2018-01-27T02:24:04.476Z,94.81
2018-01-27T02:25:03.609Z,94.75
2018-01-27T02:26:04.677Z,95.24
2018-01-27T02:27:03.529Z,95.21
2018-01-27T02:28:03.406Z,95.23
2018-01-27T02:29:04.317Z,94.98
2018-01-27T02:30:03.721Z,94.95
2018-01-27T02:31:05.299Z,95.19
2018-01-27T02:32:04.408Z,95.29
2018-01-27T02:33:03.479Z,95.29
2018-01-27T02:34:03.544Z,95.16
2018-01-27T02:35:04.187Z,95.24
2018-01-27T02:36:03.655Z,95.19
2018-01-27T02:37:05.156Z,95.09
2018-01-27T02:38:04.260Z,95.13
2018-01-27T02:39:03.660Z,95.63
2018-01-27T02:40:04.111Z,95.71
2018-01-27T02:41:03.649Z,95.92
2018-01-27T02:42:03.579Z,95.93
2018-01-27T02:43:04.380Z,96.17
2018-01-27T02:44:04.311Z,96.24
2018-01-27T02:45:04.497Z,96.36
2018-01-27T02:46:03.446Z,96.54
2018-01-27T02:47:03.599Z,96.54
2018-01-27T02:48:03.687Z,96.55
2018-01-27T02:49:03.846Z,96.68
2018-01-27T02:50:04.294Z,96.48
2018-01-27T02:51:04.557Z,96.14
2018-01-27T02:52:04.296Z,96.22
2018-01-27T02:53:03.698Z,96.19
2018-01-27T02:54:03.501Z,96.28
2018-01-27T02:55:03.496Z,96.16
2018-01-27T02:56:03.586Z,96.08
2018-01-27T02:57:04.291Z,95.94
2018-01-27T02:58:03.590Z,95.9
2018-01-27T02:59:03.618Z,95.97
2018-01-27T03:00:03.736Z,95.92
2018-01-27T03:01:03.701Z,96.31
2018-01-27T03:02:03.643Z,96.5
2018-01-27T03:03:04.741Z,96.83
2018-01-27T03:04:04.412Z,96.96
2018-01-27T03:05:04.110Z,97.15
2018-01-27T03:06:03.554Z,97.23
2018-01-27T03:07:03.416Z,97.23
2018-01-27T03:08:03.692Z,96.97
2018-01-27T03:09:04.075Z,96.96
2018-01-27T03:10:03.343Z,96.7
2018-01-27T03:11:03.451Z,96.72
2018-01-27T03:12:03.452Z,96.74
2018-01-27T03:13:03.654Z,96.66
2018-01-27T03:14:03.692Z,96.49
2018-01-27T03:15:03.796Z,96.38
2018-01-27T03:16:03.435Z,96.32
2018-01-27T03:17:03.641Z,96.17
2018-01-27T03:18:03.427Z,96.27
2018-01-27T03:19:03.644Z,96.24
2018-01-27T03:20:03.402Z,96.23
2018-01-27T03:21:04.139Z,96.1
2018-01-27T03:22:04.421Z,96.23
2018-01-27T03:23:04.263Z,96.14
2018-01-27T03:24:03.769Z,96.05
2018-01-27T03:25:04.188Z,96.22
2018-01-27T03:26:04.354Z,96.36
2018-01-27T03:27:04.242Z,96.21
2018-01-27T03:28:04.193Z,96.56
2018-01-27T03:29:03.699Z,96.72
2018-01-27T03:30:03.915Z,96.74
2018-01-27T03:31:03.626Z,96.84
2018-01-27T03:32:04.409Z,97.06
2018-01-27T03:33:03.642Z,97.1
2018-01-27T03:34:03.792Z,97.08
2018-01-27T03:35:04.438Z,97.16
2018-01-27T03:36:04.979Z,97.23
2018-01-27T03:37:03.689Z,97.51
2018-01-27T03:38:04.444Z,97.56
2018-01-27T03:39:04.020Z,97.69
2018-01-27T03:40:03.593Z,97.86
2018-01-27T03:41:03.784Z,97.85
2018-01-27T03:42:03.843Z,98.26
2018-01-27T03:43:03.996Z,98.13
2018-01-27T03:44:05.649Z,98.17
2018-01-27T03:45:04.047Z,98.23
2018-01-27T03:46:03.912Z,98.31
2018-01-27T03:47:03.867Z,98.17
2018-01-27T03:48:05.210Z,98.28
2018-01-27T03:49:04.613Z,98.38
2018-01-27T03:50:04.028Z,98.22
2018-01-27T03:51:03.647Z,98.37
2018-01-27T03:52:07.159Z,98.56
2018-01-27T03:53:03.778Z,98.82
2018-01-27T03:54:04.964Z,98.9
2018-01-27T03:55:04.984Z,98.77
2018-01-27T03:56:05.364Z,99.02
2018-01-27T03:57:05.650Z,99.03
2018-01-27T03:58:05.972Z,99.02
2018-01-27T03:59:03.777Z,99.1
2018-01-27T04:00:04.211Z,99.23
2018-01-27T04:01:04.412Z,99.22
2018-01-27T04:02:03.724Z,99.32
2018-01-27T04:03:04.741Z,99.38
2018-01-27T04:04:03.710Z,99.32
2018-01-27T04:06:03.756Z,99.49
2018-01-27T04:07:06.494Z,99.49
2018-01-27T04:08:08.713Z,99.69
2018-01-27T04:09:04.096Z,99.83
2018-01-27T04:10:04.475Z,99.87
2018-01-27T04:11:03.584Z,99.79
2018-01-27T04:12:04.583Z,99.68
2018-01-27T04:13:05.324Z,99.82
2018-01-27T04:14:05.533Z,99.74
2018-01-27T04:15:04.600Z,99.66
2018-01-27T04:16:03.694Z,99.82
2018-01-27T04:17:05.396Z,99.77
2018-01-27T04:18:04.365Z,99.81
2018-01-27T04:19:04.000Z,99.9
2018-01-27T04:20:04.605Z,100
2018-01-27T04:21:06.060Z,100
2018-01-27T04:22:06.209Z,100
2018-01-27T04:23:04.019Z,100
2018-01-27T04:24:04.028Z,100
2018-01-27T04:25:03.643Z,100
2018-01-27T04:26:04.025Z,100
2018-01-27T04:27:04.394Z,100
2018-01-27T04:28:03.697Z,100
2018-01-27T04:29:04.101Z,100
2018-01-27T04:30:03.774Z,100
2018-01-27T04:31:05.109Z,100
2018-01-27T04:32:05.307Z,100
2018-01-27T04:33:05.079Z,100
2018-01-27T04:34:05.762Z,99.68
2018-01-27T04:35:03.874Z,99.71
2018-01-27T04:36:03.918Z,99.67
2018-01-27T04:37:04.181Z,99.45
2018-01-27T04:38:03.914Z,99.4
2018-01-27T04:39:03.938Z,99.39
2018-01-27T04:40:04.099Z,99.47
2018-01-27T04:41:03.522Z,99.53
2018-01-27T04:42:05.816Z,99.53
2018-01-27T04:43:04.408Z,99.39
2018-01-27T04:44:05.099Z,99.41
2018-01-27T04:45:03.928Z,99.49
2018-01-27T04:46:04.523Z,99.31
2018-01-27T04:47:04.103Z,99.39
2018-01-27T04:48:03.992Z,99.27
2018-01-27T04:49:03.740Z,99.26
2018-01-27T04:50:06.218Z,99.25
2018-01-27T04:51:05.742Z,99.33
2018-01-27T04:52:09.878Z,99.07
2018-01-27T04:53:03.893Z,99.01
2018-01-27T04:54:05.866Z,99.03
2018-01-27T04:55:07.338Z,98.9
2018-01-27T04:56:06.815Z,99.18
2018-01-27T04:57:06.238Z,99.11
2018-01-27T04:58:05.979Z,98.92
2018-01-27T04:59:07.266Z,99.09
2018-01-27T05:00:06.376Z,99.04
2018-01-27T05:01:06.530Z,99.02
2018-01-27T05:02:18.079Z,98.87
2018-01-27T05:03:05.849Z,98.99
2018-01-27T05:04:06.150Z,98.92
2018-01-27T05:05:04.649Z,98.76
2018-01-27T05:06:04.819Z,98.71
2018-01-27T05:07:08.821Z,98.09
2018-01-27T05:08:07.597Z,98.76
2018-01-27T05:09:12.943Z,98.64
2018-01-27T05:10:05.614Z,98.73
2018-01-27T05:11:04.671Z,98.68
2018-01-27T05:12:04.764Z,98.59
2018-01-27T05:13:07.381Z,98.56
2018-01-27T05:14:07.181Z,98.33
2018-01-27T05:15:06.880Z,98.18
2018-01-27T05:16:04.855Z,98.34
2018-01-27T05:17:04.880Z,98.86
2018-01-27T05:18:04.968Z,98.82
2018-01-27T05:19:07.548Z,99.29
2018-01-27T05:20:06.355Z,99.31
2018-01-27T05:21:07.052Z,99.04
2018-01-27T05:22:06.806Z,98.95
2018-01-27T05:23:05.424Z,98.63
2018-01-27T05:24:05.307Z,98.52
2018-01-27T05:25:09.705Z,98.48
2018-01-27T05:26:06.321Z,98.32
2018-01-27T05:27:05.088Z,98.21
2018-01-27T05:28:08.029Z,98.07
2018-01-27T05:29:05.000Z,97.94
2018-01-27T05:30:06.581Z,97.85
2018-01-27T05:31:05.533Z,97.89
2018-01-27T05:32:06.700Z,97.89
2018-01-27T05:33:06.602Z,97.98
2018-01-27T05:34:05.742Z,98.12
2018-01-27T05:35:05.393Z,98.15
2018-01-27T05:36:05.235Z,97.98
2018-01-27T05:37:05.221Z,97.73
2018-01-27T05:38:04.780Z,97.69
2018-01-27T05:39:04.353Z,97.61
2018-01-27T05:40:06.422Z,97.56
2018-01-27T05:41:04.291Z,97.44
2018-01-27T05:42:07.912Z,97.24
2018-01-27T05:43:06.484Z,97.46
2018-01-27T05:44:07.009Z,97.53
2018-01-27T05:45:07.559Z,97.49
2018-01-27T05:46:05.492Z,97.42
2018-01-27T05:47:04.394Z,97.45
2018-01-27T05:48:04.900Z,97.45
2018-01-27T05:49:05.123Z,97.5
2018-01-27T05:50:04.052Z,97.27
2018-01-27T05:51:04.358Z,97.87
2018-01-27T05:52:03.800Z,97.67
2018-01-27T05:53:03.807Z,98.13
2018-01-27T05:54:03.884Z,98.52
2018-01-27T05:55:03.946Z,98.16
2018-01-27T05:56:03.715Z,98.19
2018-01-27T05:59:04.056Z,98.83
2018-01-27T06:00:03.708Z,98.66
2018-01-27T06:01:03.865Z,98.85
2018-01-27T06:02:03.790Z,99.06
2018-01-27T06:03:03.770Z,98.51
2018-01-27T06:04:03.867Z,98.53
2018-01-27T06:05:03.691Z,98.31
2018-01-27T06:06:03.818Z,98.46
2018-01-27T06:07:03.851Z,98.59
2018-01-27T06:08:03.825Z,98.88
2018-01-27T06:09:03.797Z,98.88
2018-01-27T06:10:03.630Z,98.76
2018-01-27T06:11:03.868Z,98.63
2018-01-27T06:12:03.839Z,98.7
2018-01-27T06:13:03.775Z,98.78
2018-01-27T06:14:03.922Z,98.59
2018-01-27T06:15:03.658Z,99.01
2018-01-27T06:16:03.673Z,98.61
2018-01-27T06:17:03.771Z,98.89
2018-01-27T06:18:03.698Z,98.69
2018-01-27T06:19:03.747Z,98.64
2018-01-27T06:20:03.699Z,99.16
2018-01-27T06:21:03.695Z,99.09
2018-01-27T06:22:03.883Z,99.05
2018-01-27T06:23:03.833Z,98.87
2018-01-27T06:24:03.905Z,98.97
2018-01-27T06:25:03.937Z,98.66
2018-01-27T06:26:03.733Z,98.88
2018-01-27T06:27:03.761Z,98.68
2018-01-27T06:28:03.871Z,98.51
2018-01-27T06:29:03.853Z,98.52
2018-01-27T06:30:03.871Z,98.41
2018-01-27T06:31:03.821Z,98.43
2018-01-27T06:32:03.828Z,98.4
2018-01-27T06:33:03.844Z,98.24
2018-01-27T06:34:03.930Z,98.14
2018-01-27T06:35:03.792Z,98.11
2018-01-27T06:36:04.024Z,98.16
2018-01-27T06:37:04.028Z,98.12
2018-01-27T06:38:04.179Z,97.95
2018-01-27T06:39:03.738Z,97.54
2018-01-27T06:40:05.318Z,97.48
2018-01-27T06:41:03.946Z,97.71
2018-01-27T06:42:03.943Z,98.22
2018-01-27T06:43:04.092Z,98.24
2018-01-27T06:44:03.832Z,98.28
2018-01-27T06:45:03.896Z,98.38
2018-01-27T06:46:03.957Z,98.16
2018-01-27T06:47:03.980Z,98.19
2018-01-27T06:48:03.868Z,98.28
2018-01-27T06:49:03.853Z,98.29
2018-01-27T06:50:04.307Z,98.17
2018-01-27T06:51:04.016Z,98.13
2018-01-27T06:52:04.125Z,98.02
2018-01-27T06:53:03.109Z,97.96
2018-01-27T06:54:03.171Z,97.95
2018-01-27T06:55:03.043Z,98
2018-01-27T06:56:03.109Z,98
2018-01-27T06:57:03.246Z,98.14
2018-01-27T06:58:03.118Z,98.12
2018-01-27T06:59:03.081Z,98.02
2018-01-27T07:00:03.055Z,97.94
2018-01-27T07:01:03.187Z,98.02
2018-01-27T07:02:03.365Z,97.98
2018-01-27T07:03:03.055Z,97.92
2018-01-27T07:04:03.217Z,97.87
2018-01-27T07:05:03.019Z,97.92
2018-01-27T07:06:03.349Z,97.94
2018-01-27T07:07:03.283Z,98.04
2018-01-27T07:08:03.147Z,98.15
2018-01-27T07:09:03.117Z,97.99
2018-01-27T07:10:03.216Z,98.05
2018-01-27T07:11:03.048Z,98.27
2018-01-27T07:12:03.240Z,98.31
2018-01-27T07:13:03.300Z,98.13
2018-01-27T07:14:03.158Z,98.36
2018-01-27T07:15:03.270Z,98.29
2018-01-27T07:16:03.257Z,98.39
2018-01-27T07:17:03.153Z,98.48
2018-01-27T07:18:03.190Z,98.15
2018-01-27T07:19:03.301Z,98.21
2018-01-27T07:20:03.423Z,98.71
2018-01-27T07:21:03.173Z,98.51
2018-01-27T07:22:03.033Z,99.02
2018-01-27T07:23:03.288Z,99.15
2018-01-27T07:24:03.226Z,99.25
2018-01-27T07:25:03.363Z,99.23
2018-01-27T07:26:03.222Z,99.18
2018-01-27T07:27:03.081Z,98.97
2018-01-27T07:28:03.190Z,99.28
2018-01-27T07:29:03.317Z,99.06
2018-01-27T07:30:03.325Z,98.82
2018-01-27T07:31:03.466Z,99.07
2018-01-27T07:32:03.347Z,98.76
2018-01-27T07:33:03.101Z,98.91
2018-01-27T07:34:03.193Z,98.94
2018-01-27T07:35:03.307Z,98.95
2018-01-27T07:36:03.189Z,98.78
2018-01-27T07:37:03.200Z,98.64
2018-01-27T07:38:03.410Z,98.71
2018-01-27T07:39:03.367Z,98.68
2018-01-27T07:40:04.162Z,98.34
2018-01-27T07:41:03.339Z,98.45
2018-01-27T07:42:03.168Z,98.19
2018-01-27T07:43:03.275Z,98.33
2018-01-27T07:44:03.250Z,98.43
2018-01-27T07:45:03.466Z,98.93
2018-01-27T07:46:03.117Z,98.73
2018-01-27T07:47:03.102Z,98.73
2018-01-27T07:48:03.358Z,99.18
2018-01-27T07:49:03.283Z,99.34
2018-01-27T07:50:03.226Z,99.56
2018-01-27T07:51:03.101Z,99.79
2018-01-27T07:52:03.154Z,100
2018-01-27T07:53:03.387Z,99.98
2018-01-27T07:54:03.147Z,99.52
2018-01-27T07:55:03.248Z,99.62
2018-01-27T07:56:03.285Z,99.58
2018-01-27T07:57:03.302Z,99.81
2018-01-27T07:58:03.448Z,99.93
2018-01-27T07:59:03.282Z,99.82
2018-01-27T08:00:03.302Z,99.43
2018-01-27T08:01:03.374Z,99.44
2018-01-27T08:02:03.383Z,99.52
2018-01-27T08:03:03.380Z,99.35
2018-01-27T08:04:03.139Z,99.36
2018-01-27T08:05:03.471Z,99.34
2018-01-27T08:06:03.285Z,99.54
2018-01-27T08:07:03.332Z,99.86
2018-01-27T08:08:03.288Z,99.91
2018-01-27T08:09:03.291Z,100
2018-01-27T08:10:03.311Z,99.87
2018-01-27T08:11:03.202Z,99.76
2018-01-27T08:12:03.434Z,99.75
2018-01-27T08:13:03.368Z,99.81
2018-01-27T08:14:03.365Z,99.82
2018-01-27T08:15:03.257Z,99.8
2018-01-27T08:16:03.376Z,99.5
2018-01-27T08:17:03.414Z,99.58
2018-01-27T08:18:03.136Z,99.47
2018-01-27T08:19:03.294Z,99.6
2018-01-27T08:20:03.305Z,99.14
2018-01-27T08:21:03.923Z,99.22
2018-01-27T08:22:03.407Z,98.9
2018-01-27T08:23:03.334Z,99.04
2018-01-27T08:24:03.442Z,98.78
2018-01-27T08:25:03.388Z,99.43
2018-01-27T08:26:03.219Z,99.25
2018-01-27T08:27:03.359Z,99.3
2018-01-27T08:28:03.625Z,98.95
2018-01-27T08:29:03.336Z,99.22
2018-01-27T08:30:03.537Z,99.2
2018-01-27T08:31:03.392Z,99.3
2018-01-27T08:32:03.481Z,99.24
2018-01-27T08:33:03.446Z,99.18
2018-01-27T08:36:17.503Z,98.67
2018-01-27T08:37:03.330Z,98.85
2018-01-27T08:38:03.293Z,98.9
2018-01-27T08:39:03.479Z,98.67
2018-01-27T08:40:03.315Z,98.76
2018-01-27T08:41:03.374Z,98.6
2018-01-27T08:42:03.461Z,97.99
2018-01-27T08:43:03.454Z,98.27
2018-01-27T08:44:03.502Z,98.36
2018-01-27T08:45:03.316Z,98.63
2018-01-27T08:46:03.433Z,98.93
2018-01-27T08:47:03.389Z,99.22
2018-01-27T08:48:03.410Z,99.08
2018-01-27T08:49:03.400Z,98.68
2018-01-27T08:50:03.355Z,98.99
2018-01-27T08:51:03.383Z,99.08
2018-01-27T08:52:03.456Z,98.75
2018-01-27T08:53:03.347Z,99.07
2018-01-27T08:54:05.000Z,98.33
2018-01-27T08:55:04.519Z,99.06
2018-01-27T08:56:04.593Z,99.19
2018-01-27T08:57:04.604Z,98.88
2018-01-27T08:58:05.836Z,98.29
2018-01-27T08:59:04.667Z,98.12
2018-01-27T09:00:03.285Z,98.43
2018-01-27T09:01:04.499Z,98.19
2018-01-27T09:02:04.676Z,97.58
2018-01-27T09:03:03.386Z,98.73
2018-01-27T09:04:04.622Z,98.48
2018-01-27T09:05:04.530Z,98.37
2018-01-27T09:06:28.477Z,98.96
2018-01-27T09:07:03.417Z,98.45
2018-01-27T09:08:03.285Z,98.41
2018-01-27T09:09:03.547Z,98.74
2018-01-27T09:10:19.716Z,98.74
2018-01-27T09:11:19.700Z,98.52
2018-01-27T09:13:19.647Z,98.07
2018-01-27T09:14:19.682Z,98.35
2018-01-27T09:15:19.709Z,97.6
2018-01-27T09:16:19.771Z,97.72
2018-01-27T09:17:19.690Z,97.6
2018-01-27T09:18:19.735Z,98.31
2018-01-27T09:19:19.642Z,98.12
2018-01-27T09:20:19.449Z,98.06
2018-01-27T09:21:19.503Z,97.56
2018-01-27T09:22:19.982Z,97.77
2018-01-27T09:23:19.653Z,97.81
2018-01-27T09:24:18.530Z,97.65
2018-01-27T09:25:18.554Z,97.63
2018-01-27T09:26:18.532Z,98.27
2018-01-27T09:27:18.893Z,98.25
2018-01-27T09:28:18.756Z,97.69
2018-01-27T09:29:18.351Z,97.69
2018-01-27T09:30:18.917Z,97.59
2018-01-27T09:31:18.545Z,98.64
2018-01-27T09:32:18.452Z,98.48
2018-01-27T09:33:18.450Z,98.6
2018-01-27T09:34:18.392Z,98.17
2018-01-27T09:35:18.637Z,97.91
2018-01-27T09:36:18.529Z,97.92
2018-01-27T09:37:18.590Z,97.73
2018-01-27T09:38:18.600Z,98.2
2018-01-27T09:39:18.502Z,98.59
2018-01-27T09:40:18.643Z,98.73
2018-01-27T09:41:18.537Z,98.68
2018-01-27T09:42:18.520Z,98.78
2018-01-27T09:43:18.651Z,98.27
2018-01-27T09:44:18.552Z,98.45
2018-01-27T09:45:18.511Z,98.87
2018-01-27T09:46:18.377Z,98.4
2018-01-27T09:47:18.648Z,97.99
2018-01-27T09:48:19.634Z,98.03
2018-01-27T09:49:18.674Z,98.01
2018-01-27T09:50:19.387Z,97.82
2018-01-27T09:51:18.616Z,97.18
2018-01-27T09:52:18.718Z,97.33
2018-01-27T09:53:18.504Z,97.53
2018-01-27T09:54:18.637Z,97.72
2018-01-27T09:55:18.637Z,97.86
2018-01-27T09:56:18.533Z,97.85
2018-01-27T09:57:50.131Z,97.71
2018-01-27T09:58:22.443Z,97.48
2018-01-27T09:59:22.529Z,97.53
2018-01-27T10:00:20.284Z,97.35
2018-01-27T10:01:19.628Z,97.27
2018-01-27T10:02:21.802Z,97.13
2018-01-27T10:03:20.061Z,97.31
2018-01-27T10:04:19.086Z,96.93
2018-01-27T10:05:22.441Z,96.95
2018-01-27T10:06:20.666Z,96.73
2018-01-27T10:07:19.571Z,96.55
2018-01-27T10:08:18.940Z,96.68
2018-01-27T10:09:48.839Z,96.72
2018-01-27T10:10:23.137Z,96.74
2018-01-27T10:11:29.999Z,96.72
2018-01-27T10:12:23.978Z,96.44
2018-01-27T10:13:20.052Z,96.46
2018-01-27T10:14:19.737Z,96.88
2018-01-27T10:15:19.320Z,96.86
2018-01-27T10:16:22.691Z,96.54
2018-01-27T10:17:20.304Z,96.37
2018-01-27T10:18:18.313Z,96.19
2018-01-27T10:19:48.790Z,96.14
2018-01-27T10:20:19.753Z,96.7
2018-01-27T10:21:19.560Z,97.54
2018-01-27T10:22:19.522Z,97.51
2018-01-27T10:23:19.069Z,97.87
2018-01-27T10:24:18.372Z,97.79
2018-01-27T10:25:23.859Z,98.19
2018-01-27T10:26:25.363Z,98.3
2018-01-27T10:27:19.963Z,97.9
2018-01-27T10:28:24.424Z,98.52
2018-01-27T10:29:20.282Z,98.94
2018-01-27T10:30:20.809Z,98.41
2018-01-27T10:31:18.681Z,98.54
2018-01-27T10:32:20.797Z,98.52
2018-01-27T10:33:19.574Z,98.1
2018-01-27T10:34:19.306Z,98.35
2018-01-27T10:35:20.981Z,98.39
2018-01-27T10:36:22.096Z,98.64
2018-01-27T10:37:20.074Z,98.53
2018-01-27T10:38:19.971Z,98.24
2018-01-27T10:39:18.217Z,98.26
2018-01-27T10:40:18.008Z,97.45
2018-01-27T10:41:19.330Z,97.8
2018-01-27T10:42:20.395Z,97.65
2018-01-27T10:43:18.929Z,97.84
2018-01-27T10:44:21.445Z,98.23
2018-01-27T10:45:20.487Z,98.63
2018-01-27T10:46:18.190Z,98.11
2018-01-27T10:47:19.498Z,98.26
2018-01-27T10:48:18.737Z,98.41
2018-01-27T10:49:20.118Z,97.95
2018-01-27T10:50:20.676Z,98.16
2018-01-27T10:51:20.287Z,98.52
2018-01-27T10:52:20.107Z,98.93
2018-01-27T10:53:19.606Z,98.45
2018-01-27T10:54:20.914Z,99.26
2018-01-27T10:55:18.500Z,99.2
2018-01-27T10:56:18.656Z,98.48
2018-01-27T10:57:19.978Z,98.6
2018-01-27T10:58:20.839Z,99.19
2018-01-27T10:59:26.271Z,99.22
2018-01-27T11:00:21.853Z,98.72
2018-01-27T11:01:19.381Z,98.41
2018-01-27T11:02:18.567Z,98.06
2018-01-27T11:03:18.433Z,98.39
2018-01-27T11:04:20.507Z,97.99
2018-01-27T11:05:19.239Z,98.07
2018-01-27T11:06:18.544Z,97.65
2018-01-27T11:07:22.545Z,97.28
2018-01-27T11:08:22.414Z,97.21
2018-01-27T11:09:20.229Z,97
2018-01-27T11:10:20.213Z,97.26
2018-01-27T11:11:21.419Z,97.35
2018-01-27T11:12:18.792Z,97.31
2018-01-27T11:13:19.166Z,97.64
2018-01-27T11:14:19.122Z,97.33
2018-01-27T11:15:19.264Z,97.72
2018-01-27T11:16:19.499Z,97.67
2018-01-27T11:17:22.689Z,97.29
2018-01-27T11:18:19.880Z,97.71
2018-01-27T11:19:19.736Z,97.81
2018-01-27T11:20:20.310Z,97.41
2018-01-27T11:21:19.426Z,97.43
2018-01-27T11:22:19.063Z,97.26
2018-01-27T11:23:20.919Z,97.02
2018-01-27T11:24:19.527Z,97.29
2018-01-27T11:25:18.862Z,97.35
2018-01-27T11:26:20.684Z,97.75
2018-01-27T11:27:21.411Z,97.43
2018-01-27T11:28:23.268Z,97.18
2018-01-27T11:29:28.386Z,97.02
2018-01-27T11:30:19.297Z,96.64
2018-01-27T11:31:21.264Z,96.63
2018-01-27T11:32:20.274Z,96.79
2018-01-27T11:33:19.935Z,96.79
2018-01-27T11:34:30.706Z,96.81
2018-01-27T11:35:20.528Z,96.85
2018-01-27T11:36:19.114Z,96.75
2018-01-27T11:37:26.015Z,96.49
2018-01-27T11:38:18.287Z,96.51
2018-01-27T11:39:18.179Z,96.73
2018-01-27T11:40:18.525Z,96.13
2018-01-27T11:41:18.285Z,96.57
2018-01-27T11:42:18.437Z,96.31
2018-01-27T11:43:18.727Z,95.2
2018-01-27T11:44:18.641Z,95.39
2018-01-27T11:45:18.520Z,96.01
2018-01-27T11:46:18.838Z,96.12
2018-01-27T11:47:18.490Z,95.95
2018-01-27T11:48:18.327Z,95.91
2018-01-27T11:49:18.451Z,95.96
2018-01-27T11:50:18.485Z,95.98
2018-01-27T11:51:18.556Z,95.84
2018-01-27T11:52:18.556Z,95.79
2018-01-27T11:53:18.516Z,95.25
2018-01-27T11:54:18.434Z,94.78
2018-01-27T11:55:18.708Z,94.67
2018-01-27T11:56:18.563Z,95.21
2018-01-27T11:57:18.580Z,95.49
2018-01-27T11:58:18.413Z,95.69
2018-01-27T11:59:18.444Z,95.81
2018-01-27T12:00:18.406Z,95.88
2018-01-27T12:01:18.504Z,95.56
2018-01-27T12:02:18.427Z,95.56
2018-01-27T12:03:18.532Z,95.77
2018-01-27T12:04:18.339Z,95.56
2018-01-27T12:05:18.701Z,95.5
2018-01-27T12:06:18.365Z,95.16
2018-01-27T12:07:18.729Z,95.29
2018-01-27T12:08:18.709Z,95.45
2018-01-27T12:09:18.445Z,95.5
2018-01-27T12:10:19.019Z,95.65
2018-01-27T12:11:18.585Z,95.59
2018-01-27T12:12:18.474Z,95.48
2018-01-27T12:13:18.528Z,95.66
2018-01-27T12:14:18.367Z,95.69
2018-01-27T12:15:18.545Z,95.78
2018-01-27T12:16:18.651Z,95.83
2018-01-27T12:17:18.519Z,96.35
2018-01-27T12:18:18.566Z,95.91
2018-01-27T12:19:18.570Z,95.71
2018-01-27T12:20:18.406Z,95.72
2018-01-27T12:21:18.537Z,96.03
2018-01-27T12:22:18.575Z,95.82
2018-01-27T12:23:18.651Z,95.8
2018-01-27T12:24:18.504Z,95.85
2018-01-27T12:25:18.444Z,95.51
2018-01-27T12:26:18.515Z,95.75
2018-01-27T12:27:18.659Z,95.88
2018-01-27T12:30:18.920Z,96.34
2018-01-27T12:31:18.603Z,96.32
2018-01-27T12:32:18.591Z,95.61
2018-01-27T12:33:18.743Z,95.51
2018-01-27T12:34:18.625Z,95.86
2018-01-27T12:35:18.630Z,95.95
2018-01-27T12:36:18.635Z,96
2018-01-27T12:37:18.590Z,96.03
2018-01-27T12:38:18.368Z,95.9
2018-01-27T12:39:18.692Z,95.75
2018-01-27T12:40:18.542Z,95.68
2018-01-27T12:41:18.530Z,95.6
2018-01-27T12:42:18.600Z,95.72
2018-01-27T12:43:18.469Z,95.67
2018-01-27T12:44:18.548Z,95.63
2018-01-27T12:45:18.629Z,95.5
2018-01-27T12:46:18.462Z,95.41
2018-01-27T12:47:18.614Z,95.58
2018-01-27T12:48:18.565Z,95.91
2018-01-27T12:49:18.621Z,96.03
2018-01-27T12:50:18.426Z,96.03
2018-01-27T12:51:18.568Z,95.88
2018-01-27T12:52:18.836Z,95.99
2018-01-27T12:53:18.845Z,95.81
2018-01-27T12:54:18.738Z,95.64
2018-01-27T12:55:18.766Z,95.62
2018-01-27T12:56:18.632Z,95.49
2018-01-27T12:57:18.831Z,95.38
2018-01-27T12:58:18.792Z,95.6
2018-01-27T12:59:18.614Z,95.64
2018-01-27T13:00:18.864Z,95.56
2018-01-27T13:01:18.757Z,95.84
2018-01-27T13:02:18.672Z,95.84
2018-01-27T13:03:18.903Z,95.54